createdAt,value
2023-02-06T00:00:03.993Z,-1.00
2023-02-06T00:01:04.075Z,-1.00
2023-02-06T00:02:04.153Z,-1.00
2023-02-06T00:03:04.173Z,-0.94
2023-02-06T00:04:04.171Z,-0.94
2023-02-06T00:05:04.092Z,-0.94
2023-02-06T00:06:04.005Z,-0.94
2023-02-06T00:07:04.239Z,-0.94
2023-02-06T00:08:04.225Z,-0.88
2023-02-06T00:09:04.306Z,-0.88
2023-02-06T00:10:04.299Z,-0.88
2023-02-06T00:11:04.325Z,-0.88
2023-02-06T00:12:04.388Z,-0.88
2023-02-06T00:13:03.452Z,-0.88
2023-02-06T00:14:03.619Z,-0.88
2023-02-06T00:15:03.596Z,-0.81
2023-02-06T00:16:03.716Z,-0.81
2023-02-06T00:17:03.662Z,-0.81
2023-02-06T00:18:03.754Z,-0.81
2023-02-06T00:19:03.740Z,-0.81
2023-02-06T00:20:03.755Z,-0.81
2023-02-06T00:21:03.745Z,-0.81
2023-02-06T00:22:03.758Z,-0.75
2023-02-06T00:23:03.667Z,-0.75
2023-02-06T00:24:03.698Z,-0.75
2023-02-06T00:25:03.751Z,-0.75
2023-02-06T00:26:03.852Z,-0.75
2023-02-06T00:27:03.916Z,-0.75
2023-02-06T00:28:03.987Z,-0.75
2023-02-06T00:29:04.007Z,-0.75
2023-02-06T00:30:03.913Z,-0.75
2023-02-06T00:31:04.212Z,-0.75
2023-02-06T00:32:03.997Z,-0.69
2023-02-06T00:33:04.067Z,-0.69
2023-02-06T00:34:04.149Z,-0.69
2023-02-06T00:35:04.069Z,-0.69
2023-02-06T00:36:04.147Z,-0.69
2023-02-06T00:37:04.079Z,-0.69
2023-02-06T00:38:04.170Z,-0.62
2023-02-06T00:39:04.237Z,-0.62
2023-02-06T00:40:04.315Z,-0.62
2023-02-06T00:41:04.281Z,-0.62
2023-02-06T00:42:04.233Z,-0.62
2023-02-06T00:43:04.154Z,-0.62
2023-02-06T00:44:04.154Z,-0.62
2023-02-06T00:45:04.166Z,-0.62
2023-02-06T00:46:04.419Z,-0.62
2023-02-06T00:47:04.231Z,-0.56
2023-02-06T00:48:04.253Z,-0.56
2023-02-06T00:49:04.156Z,-0.56
2023-02-06T00:50:04.155Z,-0.56
2023-02-06T00:51:04.165Z,-0.56
2023-02-06T00:52:04.240Z,-0.56
2023-02-06T00:53:04.324Z,-0.56
2023-02-06T00:54:04.319Z,-0.56
2023-02-06T00:55:04.329Z,-0.56
2023-02-06T00:56:04.394Z,-0.56
2023-02-06T00:57:04.394Z,-0.56
2023-02-06T00:58:04.314Z,-0.50
2023-02-06T00:59:04.244Z,-0.50
2023-02-06T01:00:04.149Z,-0.50
2023-02-06T01:01:04.261Z,-0.50
2023-02-06T01:02:04.340Z,-0.44
2023-02-06T01:03:04.344Z,-0.44
2023-02-06T01:04:04.255Z,-0.44
2023-02-06T01:05:04.245Z,-0.44
2023-02-06T01:06:04.237Z,-0.44
2023-02-06T01:07:04.269Z,-0.44
2023-02-06T01:08:04.593Z,-0.44
2023-02-06T01:09:04.246Z,-0.44
2023-02-06T01:10:04.556Z,-0.44
2023-02-06T01:11:03.584Z,-0.44
2023-02-06T01:12:03.743Z,-0.44
2023-02-06T01:13:03.671Z,-0.44
2023-02-06T01:14:03.666Z,-0.44
2023-02-06T01:15:03.837Z,-0.38
2023-02-06T01:16:03.805Z,-0.38
2023-02-06T01:17:03.836Z,-0.38
2023-02-06T01:18:03.833Z,-0.38
2023-02-06T01:19:03.746Z,-0.38
2023-02-06T01:20:03.775Z,-0.38
2023-02-06T01:21:03.746Z,-0.38
2023-02-06T01:22:03.748Z,-0.31
2023-02-06T01:23:03.676Z,-0.38
2023-02-06T01:24:03.669Z,-0.31
2023-02-06T01:25:03.667Z,-0.31
2023-02-06T01:26:03.673Z,-0.31
2023-02-06T01:27:03.678Z,-0.31
2023-02-06T01:28:03.589Z,-0.31
2023-02-06T01:29:03.510Z,-0.25
2023-02-06T01:30:03.590Z,-0.25
2023-02-06T01:31:03.645Z,-0.25
2023-02-06T01:32:03.588Z,-0.25
2023-02-06T01:33:03.664Z,-0.25
2023-02-06T01:34:03.582Z,-0.25
2023-02-06T01:35:03.663Z,-0.25
2023-02-06T01:36:03.670Z,-0.19
2023-02-06T01:37:03.602Z,-0.19
2023-02-06T01:38:03.600Z,-0.19
2023-02-06T01:39:03.580Z,-0.19
2023-02-06T01:40:03.671Z,-0.19
2023-02-06T01:41:03.754Z,-0.12
2023-02-06T01:42:03.847Z,-0.19
2023-02-06T01:43:03.829Z,-0.19
2023-02-06T01:44:03.814Z,-0.19
2023-02-06T01:45:04.871Z,-0.12
2023-02-06T01:46:03.830Z,-0.12
2023-02-06T01:47:03.828Z,-0.12
2023-02-06T01:48:03.746Z,-0.12
2023-02-06T01:49:05.471Z,-0.12
2023-02-06T01:50:03.768Z,-0.12
2023-02-06T01:51:03.829Z,-0.12
2023-02-06T01:52:03.824Z,-0.12
2023-02-06T01:53:03.732Z,-0.12
2023-02-06T01:54:03.829Z,-0.12
2023-02-06T01:55:03.831Z,-0.06
2023-02-06T01:56:03.778Z,-0.06
2023-02-06T01:57:03.856Z,-0.12
2023-02-06T01:58:03.959Z,-0.12
2023-02-06T01:59:03.740Z,-0.06
2023-02-06T02:00:03.834Z,-0.12
2023-02-06T02:01:03.774Z,-0.12
2023-02-06T02:02:03.790Z,-0.12
2023-02-06T02:03:03.670Z,-0.12
2023-02-06T02:04:03.668Z,-0.12
2023-02-06T02:05:03.603Z,-0.12
2023-02-06T02:06:03.670Z,-0.12
2023-02-06T02:07:03.664Z,-0.06
2023-02-06T02:08:03.742Z,-0.06
2023-02-06T02:09:03.675Z,-0.06
2023-02-06T02:10:03.584Z,-0.06
2023-02-06T02:11:03.588Z,-0.06
2023-02-06T02:12:03.634Z,-0.06
2023-02-06T02:13:03.758Z,-0.06
2023-02-06T02:14:03.669Z,-0.06
2023-02-06T02:15:03.682Z,-0.06
2023-02-06T02:16:03.598Z,-0.06
2023-02-06T02:17:03.746Z,-0.06
2023-02-06T02:18:03.698Z,-0.06
2023-02-06T02:19:03.746Z,-0.06
2023-02-06T02:20:03.762Z,-0.06
2023-02-06T02:21:03.683Z,-0.06
2023-02-06T02:22:03.586Z,-0.06
2023-02-06T02:23:03.595Z,-0.06
2023-02-06T02:24:03.756Z,-0.06
2023-02-06T02:25:03.673Z,-0.06
2023-02-06T02:26:03.670Z,-0.06
2023-02-06T02:27:03.619Z,-0.06
2023-02-06T02:28:03.658Z,-0.06
2023-02-06T02:29:03.510Z,-0.06
2023-02-06T02:30:03.512Z,0.00
2023-02-06T02:31:03.668Z,-0.06
2023-02-06T02:32:03.595Z,-0.06
2023-02-06T02:33:03.597Z,0.00
2023-02-06T02:34:03.598Z,0.00
2023-02-06T02:35:03.616Z,0.00
2023-02-06T02:36:03.630Z,0.00
2023-02-06T02:37:03.520Z,0.00
2023-02-06T02:38:03.601Z,0.00
2023-02-06T02:39:03.670Z,0.00
2023-02-06T02:40:03.670Z,0.00
2023-02-06T02:41:03.589Z,0.00
2023-02-06T02:42:03.672Z,0.00
2023-02-06T02:43:03.594Z,0.00
2023-02-06T02:44:03.595Z,0.00
2023-02-06T02:45:03.753Z,0.00
2023-02-06T02:46:03.797Z,0.06
2023-02-06T02:47:03.752Z,0.06
2023-02-06T02:48:04.712Z,0.06
2023-02-06T02:49:03.825Z,0.00
2023-02-06T02:50:03.826Z,0.00
2023-02-06T02:51:03.828Z,0.00
2023-02-06T02:52:03.836Z,0.00
2023-02-06T02:53:03.804Z,0.00
2023-02-06T02:54:03.756Z,0.06
2023-02-06T02:55:03.829Z,0.06
2023-02-06T02:56:03.822Z,0.06
2023-02-06T02:57:03.818Z,0.06
2023-02-06T02:58:03.756Z,0.06
2023-02-06T02:59:03.828Z,0.06
2023-02-06T03:00:03.989Z,0.06
2023-02-06T03:01:03.969Z,0.06
2023-02-06T03:02:03.878Z,0.06
2023-02-06T03:03:03.906Z,0.06
2023-02-06T03:04:03.981Z,0.06
2023-02-06T03:05:03.903Z,0.06
2023-02-06T03:06:03.909Z,0.06
2023-02-06T03:07:03.938Z,0.06
2023-02-06T03:08:03.907Z,0.06
2023-02-06T03:09:03.793Z,0.06
2023-02-06T03:10:03.748Z,0.06
2023-02-06T03:11:03.907Z,0.06
2023-02-06T03:12:03.747Z,0.06
2023-02-06T03:13:03.746Z,0.06
2023-02-06T03:14:03.753Z,0.06
2023-02-06T03:15:03.759Z,0.06
2023-02-06T03:16:03.837Z,0.06
2023-02-06T03:17:03.905Z,0.06
2023-02-06T03:18:03.990Z,0.06
2023-02-06T03:19:03.983Z,0.06
2023-02-06T03:20:04.077Z,0.06
2023-02-06T03:21:03.594Z,0.06
2023-02-06T03:22:03.587Z,0.06
2023-02-06T03:23:03.757Z,0.06
2023-02-06T03:24:03.674Z,0.06
2023-02-06T03:25:03.902Z,0.06
2023-02-06T03:26:03.991Z,0.06
2023-02-06T03:27:03.937Z,0.06
2023-02-06T03:28:04.032Z,0.06
2023-02-06T03:29:04.007Z,0.06
2023-02-06T03:30:03.922Z,0.06
2023-02-06T03:31:03.825Z,0.06
2023-02-06T03:32:03.907Z,0.06
2023-02-06T03:33:03.902Z,0.06
2023-02-06T03:34:03.998Z,0.06
2023-02-06T03:35:03.905Z,0.06
2023-02-06T03:36:03.904Z,0.06
2023-02-06T03:37:03.913Z,0.06
2023-02-06T03:38:03.832Z,0.06
2023-02-06T03:39:03.922Z,0.06
2023-02-06T03:40:03.845Z,0.06
2023-02-06T03:41:03.826Z,0.06
2023-02-06T03:42:03.758Z,0.06
2023-02-06T03:43:03.842Z,0.06
2023-02-06T03:44:03.837Z,0.06
2023-02-06T03:45:03.745Z,0.12
2023-02-06T03:46:03.704Z,0.06
2023-02-06T03:47:03.666Z,0.06
2023-02-06T03:48:03.626Z,0.06
2023-02-06T03:49:03.599Z,0.06
2023-02-06T03:50:03.659Z,0.06
2023-02-06T03:51:03.606Z,0.06
2023-02-06T03:52:03.587Z,0.06
2023-02-06T03:53:03.524Z,0.06
2023-02-06T03:54:03.510Z,0.06
2023-02-06T03:55:03.539Z,0.12
2023-02-06T03:56:03.505Z,0.06
2023-02-06T03:57:03.519Z,0.12
2023-02-06T03:58:03.621Z,0.12
2023-02-06T03:59:03.521Z,0.12
2023-02-06T04:00:03.666Z,0.12
2023-02-06T04:01:03.691Z,0.12
2023-02-06T04:02:03.731Z,0.12
2023-02-06T04:03:03.671Z,0.06
2023-02-06T04:04:03.676Z,0.06
2023-02-06T04:05:03.762Z,0.06
2023-02-06T04:06:03.834Z,0.06
2023-02-06T04:07:03.908Z,0.06
2023-02-06T04:08:03.917Z,0.06
2023-02-06T04:09:03.757Z,0.06
2023-02-06T04:10:03.831Z,0.06
2023-02-06T04:11:03.778Z,0.06
2023-02-06T04:12:03.681Z,0.06
2023-02-06T04:13:03.870Z,0.06
2023-02-06T04:14:03.748Z,0.06
2023-02-06T04:15:03.763Z,0.06
2023-02-06T04:16:03.748Z,0.06
2023-02-06T04:17:03.766Z,0.06
2023-02-06T04:18:04.570Z,0.06
2023-02-06T04:19:03.920Z,0.06
2023-02-06T04:20:03.838Z,0.06
2023-02-06T04:21:03.903Z,0.06
2023-02-06T04:22:03.832Z,0.06
2023-02-06T04:23:03.748Z,0.12
2023-02-06T04:24:03.787Z,0.12
2023-02-06T04:25:03.753Z,0.12
2023-02-06T04:26:03.763Z,0.12
2023-02-06T04:27:03.755Z,0.06
2023-02-06T04:28:03.660Z,0.06
2023-02-06T04:29:03.668Z,0.06
2023-02-06T04:30:03.671Z,0.06
2023-02-06T04:31:03.759Z,0.06
2023-02-06T04:32:03.701Z,0.06
2023-02-06T04:33:03.758Z,0.06
2023-02-06T04:34:03.762Z,0.06
2023-02-06T04:35:03.768Z,0.06
2023-02-06T04:36:03.761Z,0.06
2023-02-06T04:37:03.841Z,0.12
2023-02-06T04:38:03.746Z,0.06
2023-02-06T04:39:03.833Z,0.12
2023-02-06T04:40:03.926Z,0.06
2023-02-06T04:41:03.827Z,0.06
2023-02-06T04:42:03.913Z,0.06
2023-02-06T04:43:03.916Z,0.06
2023-02-06T04:44:03.998Z,0.06
2023-02-06T04:45:03.917Z,0.06
2023-02-06T04:46:03.899Z,0.12
2023-02-06T04:47:03.840Z,0.12
2023-02-06T04:48:03.752Z,0.12
2023-02-06T04:49:03.824Z,0.12
2023-02-06T04:50:03.752Z,0.12
2023-02-06T04:51:03.831Z,0.12
2023-02-06T04:52:03.742Z,0.12
2023-02-06T04:53:03.750Z,0.12
2023-02-06T04:54:03.741Z,0.12
2023-02-06T04:55:03.752Z,0.12
2023-02-06T04:56:03.831Z,0.12
2023-02-06T04:57:03.754Z,0.12
2023-02-06T04:58:03.845Z,0.12
2023-02-06T04:59:03.835Z,0.12
2023-02-06T05:00:03.749Z,0.12
2023-02-06T05:01:03.835Z,0.12
2023-02-06T05:02:03.845Z,0.12
2023-02-06T05:03:03.923Z,0.12
2023-02-06T05:04:03.829Z,0.12
2023-02-06T05:05:03.925Z,0.12
2023-02-06T05:06:04.083Z,0.12
2023-02-06T05:07:05.549Z,0.12
2023-02-06T05:08:04.077Z,0.12
2023-02-06T05:09:04.087Z,0.12
2023-02-06T05:10:04.212Z,0.12
2023-02-06T05:11:03.598Z,0.12
2023-02-06T05:12:03.607Z,0.19
2023-02-06T05:13:03.504Z,0.19
2023-02-06T05:14:03.506Z,0.19
2023-02-06T05:15:03.430Z,0.19
2023-02-06T05:16:04.488Z,0.19
2023-02-06T05:17:04.393Z,0.19
2023-02-06T05:18:04.376Z,0.19
2023-02-06T05:19:03.498Z,0.12
2023-02-06T05:20:04.029Z,0.19
2023-02-06T05:21:04.065Z,0.19
2023-02-06T05:22:04.076Z,0.19
2023-02-06T05:23:04.147Z,0.19
2023-02-06T05:24:04.317Z,0.19
2023-02-06T05:25:04.482Z,0.19
2023-02-06T05:26:04.305Z,0.19
2023-02-06T05:27:04.401Z,0.19
2023-02-06T05:28:03.527Z,0.19
2023-02-06T05:29:03.606Z,0.19
2023-02-06T05:30:03.591Z,0.19
2023-02-06T05:31:03.740Z,0.19
2023-02-06T05:32:03.595Z,0.19
2023-02-06T05:33:03.679Z,0.19
2023-02-06T05:34:03.583Z,0.19
2023-02-06T05:35:04.500Z,0.19
2023-02-06T05:36:04.468Z,0.19
2023-02-06T05:37:03.502Z,0.12
2023-02-06T05:38:03.528Z,0.19
2023-02-06T05:39:03.587Z,0.19
2023-02-06T05:40:03.703Z,0.19
2023-02-06T05:41:03.661Z,0.19
2023-02-06T05:42:03.763Z,0.19
2023-02-06T05:43:03.668Z,0.19
2023-02-06T05:44:03.674Z,0.25
2023-02-06T05:45:03.665Z,0.25
2023-02-06T05:46:03.698Z,0.25
2023-02-06T05:47:03.759Z,0.25
2023-02-06T05:48:03.827Z,0.25
2023-02-06T05:49:03.941Z,0.25
2023-02-06T05:50:04.005Z,0.25
2023-02-06T05:51:03.909Z,0.25
2023-02-06T05:52:03.919Z,0.25
2023-02-06T05:53:03.917Z,0.25
2023-02-06T05:54:03.908Z,0.25
2023-02-06T05:55:04.005Z,0.25
2023-02-06T05:56:03.948Z,0.25
2023-02-06T05:57:03.991Z,0.25
2023-02-06T05:58:06.100Z,0.25
2023-02-06T05:59:03.854Z,0.25
2023-02-06T06:00:03.834Z,0.25
2023-02-06T06:01:03.849Z,0.25
2023-02-06T06:02:03.908Z,0.25
2023-02-06T06:03:03.915Z,0.25
2023-02-06T06:04:03.943Z,0.25
2023-02-06T06:05:03.980Z,0.31
2023-02-06T06:06:03.972Z,0.25
2023-02-06T06:07:03.906Z,0.25
2023-02-06T06:08:03.999Z,0.31
2023-02-06T06:09:04.004Z,0.31
2023-02-06T06:10:03.989Z,0.25
2023-02-06T06:11:03.922Z,0.25
2023-02-06T06:12:03.936Z,0.25
2023-02-06T06:13:03.830Z,0.25
2023-02-06T06:14:03.991Z,0.25
2023-02-06T06:15:03.989Z,0.25
2023-02-06T06:16:03.946Z,0.25
2023-02-06T06:17:04.079Z,0.25
2023-02-06T06:18:04.162Z,0.25
2023-02-06T06:19:04.067Z,0.25
2023-02-06T06:20:03.994Z,0.25
2023-02-06T06:21:04.081Z,0.25
2023-02-06T06:22:04.000Z,0.25
2023-02-06T06:23:03.989Z,0.25
2023-02-06T06:24:04.078Z,0.25
2023-02-06T06:25:03.984Z,0.25
2023-02-06T06:26:04.073Z,0.25
2023-02-06T06:27:04.153Z,0.25
2023-02-06T06:28:04.134Z,0.25
2023-02-06T06:29:04.075Z,0.25
2023-02-06T06:30:04.120Z,0.25
2023-02-06T06:31:04.189Z,0.25
2023-02-06T06:32:04.170Z,0.25
2023-02-06T06:33:04.240Z,0.25
2023-02-06T06:34:04.072Z,0.25
2023-02-06T06:35:04.185Z,0.31
2023-02-06T06:36:04.157Z,0.31
2023-02-06T06:37:04.260Z,0.25
2023-02-06T06:38:04.232Z,0.31
2023-02-06T06:39:04.325Z,0.31
2023-02-06T06:40:04.317Z,0.31
2023-02-06T06:41:04.485Z,0.31
2023-02-06T06:42:03.514Z,0.31
2023-02-06T06:43:04.473Z,0.25
2023-02-06T06:44:04.403Z,0.31
2023-02-06T06:45:04.312Z,0.31
2023-02-06T06:46:04.351Z,0.31
2023-02-06T06:47:04.233Z,0.31
2023-02-06T06:48:04.312Z,0.31
2023-02-06T06:49:04.313Z,0.31
2023-02-06T06:50:04.400Z,0.31
2023-02-06T06:51:04.556Z,0.31
2023-02-06T06:52:08.799Z,0.31
2023-02-06T06:53:03.523Z,0.31
2023-02-06T06:54:03.606Z,0.31
2023-02-06T06:55:03.542Z,0.31
2023-02-06T06:56:03.620Z,0.31
2023-02-06T06:57:03.615Z,0.31
2023-02-06T06:58:03.524Z,0.31
2023-02-06T06:59:04.396Z,0.31
2023-02-06T07:00:03.576Z,0.31
2023-02-06T07:01:03.794Z,0.38
2023-02-06T07:02:03.698Z,0.31
2023-02-06T07:03:03.721Z,0.31
2023-02-06T07:04:03.755Z,0.31
2023-02-06T07:05:03.760Z,0.31
2023-02-06T07:06:03.686Z,0.38
2023-02-06T07:07:03.786Z,0.31
2023-02-06T07:08:03.667Z,0.31
2023-02-06T07:09:03.838Z,0.31
2023-02-06T07:10:03.825Z,0.31
2023-02-06T07:11:03.763Z,0.31
2023-02-06T07:12:03.687Z,0.38
2023-02-06T07:13:03.740Z,0.31
2023-02-06T07:14:03.920Z,0.31
2023-02-06T07:15:03.908Z,0.31
2023-02-06T07:16:03.990Z,0.38
2023-02-06T07:17:03.904Z,0.38
2023-02-06T07:18:04.087Z,0.38
2023-02-06T07:19:04.073Z,0.38
2023-02-06T07:20:03.921Z,0.38
2023-02-06T07:21:03.989Z,0.38
2023-02-06T07:22:03.993Z,0.38
2023-02-06T07:23:03.983Z,0.38
2023-02-06T07:24:03.754Z,0.38
2023-02-06T07:25:03.702Z,0.38
2023-02-06T07:26:03.831Z,0.38
2023-02-06T07:27:03.754Z,0.38
2023-02-06T07:28:03.789Z,0.38
2023-02-06T07:29:03.866Z,0.38
2023-02-06T07:30:06.198Z,0.38
2023-02-06T07:31:03.799Z,0.38
2023-02-06T07:32:03.757Z,0.38
2023-02-06T07:33:03.768Z,0.38
2023-02-06T07:34:03.761Z,0.44
2023-02-06T07:35:03.761Z,0.44
2023-02-06T07:36:04.214Z,0.38
2023-02-06T07:37:03.678Z,0.44
2023-02-06T07:38:03.542Z,0.44
2023-02-06T07:39:03.624Z,0.44
2023-02-06T07:40:03.508Z,0.44
2023-02-06T07:41:03.556Z,0.44
2023-02-06T07:42:03.436Z,0.44
2023-02-06T07:43:03.506Z,0.44
2023-02-06T07:44:04.549Z,0.44
2023-02-06T07:45:03.430Z,0.44
2023-02-06T07:46:04.494Z,0.50
2023-02-06T07:47:04.473Z,0.44
2023-02-06T07:48:03.665Z,0.50
2023-02-06T07:49:03.511Z,0.50
2023-02-06T07:50:03.520Z,0.50
2023-02-06T07:51:03.691Z,0.50
2023-02-06T07:52:03.668Z,0.50
2023-02-06T07:53:03.743Z,0.50
2023-02-06T07:54:03.759Z,0.50
2023-02-06T07:55:03.677Z,0.50
2023-02-06T07:56:03.667Z,0.50
2023-02-06T07:57:03.672Z,0.50
2023-02-06T07:58:03.743Z,0.56
2023-02-06T07:59:03.753Z,0.56
2023-02-06T08:00:03.754Z,0.56
2023-02-06T08:01:03.805Z,0.56
2023-02-06T08:02:03.676Z,0.56
2023-02-06T08:03:03.593Z,0.56
2023-02-06T08:04:03.608Z,0.56
2023-02-06T08:05:03.618Z,0.56
2023-02-06T08:06:04.489Z,0.56
2023-02-06T08:07:04.404Z,0.56
2023-02-06T08:08:04.309Z,0.56
2023-02-06T08:09:04.392Z,0.56
2023-02-06T08:10:04.313Z,0.62
2023-02-06T08:11:04.318Z,0.62
2023-02-06T08:12:04.331Z,0.56
2023-02-06T08:13:04.158Z,0.62
2023-02-06T08:14:04.161Z,0.62
2023-02-06T08:15:04.150Z,0.62
2023-02-06T08:16:04.479Z,0.62
2023-02-06T08:17:04.390Z,0.62
2023-02-06T08:18:03.515Z,0.62
2023-02-06T08:19:03.433Z,0.62
2023-02-06T08:20:04.482Z,0.69
2023-02-06T08:21:04.477Z,0.69
2023-02-06T08:22:04.394Z,0.69
2023-02-06T08:23:04.387Z,0.69
2023-02-06T08:24:04.384Z,0.69
2023-02-06T08:25:04.396Z,0.69
2023-02-06T08:26:04.473Z,0.69
2023-02-06T08:27:04.424Z,0.69
2023-02-06T08:28:04.500Z,0.69
2023-02-06T08:29:04.482Z,0.69
2023-02-06T08:30:04.309Z,0.75
2023-02-06T08:31:06.543Z,0.75
2023-02-06T08:32:04.155Z,0.75
2023-02-06T08:33:05.208Z,0.75
2023-02-06T08:34:04.239Z,0.75
2023-02-06T08:35:04.233Z,0.75
2023-02-06T08:36:04.243Z,0.81
2023-02-06T08:37:04.146Z,0.81
2023-02-06T08:38:04.263Z,0.81
2023-02-06T08:39:04.255Z,0.81
2023-02-06T08:40:04.168Z,0.81
2023-02-06T08:41:04.148Z,0.81
2023-02-06T08:42:04.237Z,0.81
2023-02-06T08:43:04.246Z,0.88
2023-02-06T08:44:04.147Z,0.81
2023-02-06T08:45:04.327Z,0.88
2023-02-06T08:46:04.315Z,0.81
2023-02-06T08:47:09.925Z,0.88
2023-02-06T08:48:04.246Z,0.88
2023-02-06T08:49:04.236Z,0.88
2023-02-06T08:50:04.256Z,0.88
2023-02-06T08:51:04.326Z,0.88
2023-02-06T08:52:04.392Z,0.88
2023-02-06T08:53:04.409Z,0.94
2023-02-06T08:54:04.483Z,0.94
2023-02-06T08:55:04.412Z,0.94
2023-02-06T08:56:04.335Z,0.94
2023-02-06T08:57:04.488Z,0.94
2023-02-06T08:58:03.520Z,0.94
2023-02-06T08:59:03.680Z,0.94
2023-02-06T09:00:03.606Z,0.94
2023-02-06T09:01:03.646Z,1.00
2023-02-06T09:02:03.533Z,1.00
2023-02-06T09:03:04.487Z,1.00
2023-02-06T09:04:03.517Z,1.00
2023-02-06T09:05:04.491Z,1.00
2023-02-06T09:06:09.647Z,1.00
2023-02-06T09:07:04.488Z,1.00
2023-02-06T09:08:04.413Z,1.06
2023-02-06T09:09:04.480Z,1.06
2023-02-06T09:10:04.393Z,1.06
2023-02-06T09:11:03.599Z,1.06
2023-02-06T09:12:03.436Z,1.06
2023-02-06T09:13:04.485Z,1.06
2023-02-06T09:14:04.385Z,1.06
2023-02-06T09:15:04.415Z,1.06
2023-02-06T09:16:04.432Z,1.06
2023-02-06T09:17:04.500Z,1.06
2023-02-06T09:18:04.392Z,1.06
2023-02-06T09:19:04.474Z,1.12
2023-02-06T09:20:04.318Z,1.12
2023-02-06T09:21:04.304Z,1.12
2023-02-06T09:22:06.333Z,1.12
2023-02-06T09:23:04.386Z,1.12
2023-02-06T09:24:04.386Z,1.12
2023-02-06T09:25:04.385Z,1.12
2023-02-06T09:26:03.524Z,1.12
2023-02-06T09:27:03.511Z,1.12
2023-02-06T09:28:03.639Z,1.12
2023-02-06T09:29:03.528Z,1.19
2023-02-06T09:30:04.565Z,1.19
2023-02-06T09:31:04.555Z,1.19
2023-02-06T09:32:03.584Z,1.19
2023-02-06T09:33:03.513Z,1.19
2023-02-06T09:34:04.547Z,1.19
2023-02-06T09:35:04.384Z,1.19
2023-02-06T09:36:04.320Z,1.19
2023-02-06T09:37:04.481Z,1.19
2023-02-06T09:38:04.383Z,1.19
2023-02-06T09:39:05.364Z,1.25
2023-02-06T09:40:03.504Z,1.25
2023-02-06T09:41:04.545Z,1.25
2023-02-06T09:42:03.507Z,1.25
2023-02-06T09:43:03.502Z,1.25
2023-02-06T09:44:03.621Z,1.25
2023-02-06T09:45:04.457Z,1.25
2023-02-06T09:46:04.396Z,1.25
2023-02-06T09:47:04.302Z,1.31
2023-02-06T09:48:04.471Z,1.31
2023-02-06T09:49:04.398Z,1.31
2023-02-06T09:50:04.308Z,1.31
2023-02-06T09:51:04.393Z,1.31
2023-02-06T09:52:04.228Z,1.31
2023-02-06T09:53:04.234Z,1.31
2023-02-06T09:54:04.150Z,1.31
2023-02-06T09:55:04.161Z,1.31
2023-02-06T09:56:04.020Z,1.38
2023-02-06T09:57:04.071Z,1.38
2023-02-06T09:58:04.140Z,1.38
2023-02-06T09:59:04.068Z,1.38
2023-02-06T10:00:04.069Z,1.38
2023-02-06T10:01:04.229Z,1.38
2023-02-06T10:02:04.137Z,1.38
2023-02-06T10:03:04.233Z,1.38
2023-02-06T10:04:04.281Z,1.38
2023-02-06T10:05:04.151Z,1.38
2023-02-06T10:06:04.144Z,1.38
2023-02-06T10:07:04.223Z,1.38
2023-02-06T10:08:04.393Z,1.38
2023-02-06T10:09:04.469Z,1.44
2023-02-06T10:10:04.543Z,1.44
2023-02-06T10:11:04.381Z,1.44
2023-02-06T10:12:04.393Z,1.44
2023-02-06T10:13:04.396Z,1.44
2023-02-06T10:14:04.387Z,1.50
2023-02-06T10:15:04.224Z,1.50
2023-02-06T10:16:04.267Z,1.50
2023-02-06T10:17:04.227Z,1.50
2023-02-06T10:18:04.221Z,1.56
2023-02-06T10:19:04.230Z,1.56
2023-02-06T10:20:04.140Z,1.56
2023-02-06T10:21:04.154Z,1.56
2023-02-06T10:22:03.994Z,1.56
2023-02-06T10:23:04.015Z,1.50
2023-02-06T10:24:03.991Z,1.56
2023-02-06T10:25:03.990Z,1.56
2023-02-06T10:26:04.162Z,1.56
2023-02-06T10:27:04.072Z,1.56
2023-02-06T10:28:04.314Z,1.56
2023-02-06T10:29:04.240Z,1.56
2023-02-06T10:30:04.235Z,1.56
2023-02-06T10:31:04.552Z,1.62
2023-02-06T10:32:04.424Z,1.62
2023-02-06T10:33:04.361Z,1.62
2023-02-06T10:34:03.588Z,1.62
2023-02-06T10:35:04.465Z,1.56
2023-02-06T10:36:04.477Z,1.56
2023-02-06T10:37:04.478Z,1.56
2023-02-06T10:38:03.504Z,1.56
2023-02-06T10:39:04.470Z,1.56
2023-02-06T10:40:04.390Z,1.56
2023-02-06T10:41:04.466Z,1.56
2023-02-06T10:42:04.384Z,1.56
2023-02-06T10:43:04.327Z,1.56
2023-02-06T10:44:04.395Z,1.56
2023-02-06T10:45:18.860Z,1.56
2023-02-06T10:46:04.398Z,1.56
2023-02-06T10:47:04.392Z,1.62
2023-02-06T10:48:04.409Z,1.56
2023-02-06T10:49:04.397Z,1.62
2023-02-06T10:50:04.311Z,1.62
2023-02-06T10:51:04.468Z,1.56
2023-02-06T10:52:04.316Z,1.56
2023-02-06T10:53:04.400Z,1.56
2023-02-06T10:54:04.416Z,1.50
2023-02-06T10:55:04.401Z,1.56
2023-02-06T10:56:04.806Z,1.50
2023-02-06T10:57:04.484Z,1.50
2023-02-06T10:58:04.564Z,1.50
2023-02-06T10:59:04.418Z,1.50
2023-02-06T11:00:04.482Z,1.50
2023-02-06T11:01:11.306Z,1.56
2023-02-06T11:02:04.544Z,1.56
2023-02-06T11:03:07.783Z,1.56
2023-02-06T11:04:04.417Z,1.56
2023-02-06T11:05:04.498Z,1.56
2023-02-06T11:06:04.402Z,1.62
2023-02-06T11:07:03.443Z,1.56
2023-02-06T11:08:04.472Z,1.56
2023-02-06T11:09:03.442Z,1.56
2023-02-06T11:10:03.525Z,1.56
2023-02-06T11:11:03.675Z,1.56
2023-02-06T11:12:03.518Z,1.56
2023-02-06T11:13:04.506Z,1.62
2023-02-06T11:14:04.311Z,1.56
2023-02-06T11:15:04.388Z,1.56
2023-02-06T11:16:04.421Z,1.56
2023-02-06T11:17:04.410Z,1.56
2023-02-06T11:18:04.313Z,1.56
2023-02-06T11:19:04.389Z,1.56
2023-02-06T11:20:04.391Z,1.56
2023-02-06T11:21:03.537Z,1.56
2023-02-06T11:22:04.392Z,1.56
2023-02-06T11:23:03.600Z,1.56
2023-02-06T11:24:03.523Z,1.56
2023-02-06T11:25:03.549Z,1.56
2023-02-06T11:26:04.386Z,1.50
2023-02-06T11:27:04.500Z,1.50
2023-02-06T11:28:04.338Z,1.50
2023-02-06T11:29:04.386Z,1.50
2023-02-06T11:30:04.386Z,1.50
2023-02-06T11:31:04.513Z,1.44
2023-02-06T11:32:04.482Z,1.50
2023-02-06T11:33:05.108Z,1.44
2023-02-06T11:34:04.479Z,1.44
2023-02-06T11:35:04.390Z,1.44
2023-02-06T11:36:04.488Z,1.44
2023-02-06T11:37:04.393Z,1.44
2023-02-06T11:38:05.455Z,1.44
2023-02-06T11:39:04.399Z,1.44
2023-02-06T11:40:04.473Z,1.44
2023-02-06T11:41:04.481Z,1.44
2023-02-06T11:42:04.477Z,1.44
2023-02-06T11:43:03.510Z,1.44
2023-02-06T11:44:03.597Z,1.44
2023-02-06T11:45:03.514Z,1.50
2023-02-06T11:46:04.493Z,1.44
2023-02-06T11:47:04.385Z,1.44
2023-02-06T11:48:03.507Z,1.44
2023-02-06T11:49:03.930Z,1.44
2023-02-06T11:50:03.908Z,1.44
2023-02-06T11:51:03.994Z,1.38
2023-02-06T11:52:03.979Z,1.38
2023-02-06T11:53:03.906Z,1.38
2023-02-06T11:54:03.929Z,1.38
2023-02-06T11:55:04.869Z,1.38
2023-02-06T11:56:03.914Z,1.38
2023-02-06T11:57:03.861Z,1.38
2023-02-06T11:58:03.997Z,1.38
2023-02-06T11:59:06.006Z,1.38
2023-02-06T12:00:03.776Z,1.38
2023-02-06T12:01:03.608Z,1.38
2023-02-06T12:02:03.598Z,1.31
2023-02-06T12:03:04.596Z,1.31
2023-02-06T12:04:03.513Z,1.31
2023-02-06T12:05:04.400Z,1.31
2023-02-06T12:06:04.345Z,1.31
2023-02-06T12:07:04.390Z,1.31
2023-02-06T12:08:04.391Z,1.31
2023-02-06T12:09:04.476Z,1.38
2023-02-06T12:10:04.421Z,1.31
2023-02-06T12:11:04.399Z,1.31
2023-02-06T12:12:04.401Z,1.38
2023-02-06T12:13:04.312Z,1.38
2023-02-06T12:14:04.310Z,1.38
2023-02-06T12:15:18.390Z,1.38
2023-02-06T12:16:03.833Z,1.38
2023-02-06T12:17:03.828Z,1.38
2023-02-06T12:18:04.006Z,1.38
2023-02-06T12:19:03.842Z,1.38
2023-02-06T12:20:03.928Z,1.38
2023-02-06T12:21:03.947Z,1.38
2023-02-06T12:22:03.873Z,1.44
2023-02-06T12:23:03.750Z,1.44
2023-02-06T12:24:03.666Z,1.44
2023-02-06T12:25:03.744Z,1.38
2023-02-06T12:26:03.767Z,1.38
2023-02-06T12:27:03.674Z,1.31
2023-02-06T12:28:03.792Z,1.31
2023-02-06T12:29:03.760Z,1.31
2023-02-06T12:30:03.746Z,1.31
2023-02-06T12:31:03.945Z,1.31
2023-02-06T12:32:03.820Z,1.31
2023-02-06T12:33:03.829Z,1.31
2023-02-06T12:34:03.744Z,1.38
2023-02-06T12:35:03.827Z,1.38
2023-02-06T12:36:03.682Z,1.38
2023-02-06T12:37:03.671Z,1.38
2023-02-06T12:38:03.509Z,1.38
2023-02-06T12:39:03.700Z,1.38
2023-02-06T12:40:03.501Z,1.31
2023-02-06T12:41:03.628Z,1.31
2023-02-06T12:42:03.604Z,1.31
2023-02-06T12:43:03.514Z,1.31
2023-02-06T12:44:04.469Z,1.31
2023-02-06T12:45:04.388Z,1.38
2023-02-06T12:46:03.524Z,1.38
2023-02-06T12:47:03.499Z,1.38
2023-02-06T12:48:03.677Z,1.38
2023-02-06T12:49:03.600Z,1.38
2023-02-06T12:50:03.500Z,1.38
2023-02-06T12:51:03.577Z,1.31
2023-02-06T12:52:03.498Z,1.31
2023-02-06T12:53:04.467Z,1.31
2023-02-06T12:54:04.468Z,1.31
2023-02-06T12:55:03.514Z,1.31
2023-02-06T12:56:04.477Z,1.31
2023-02-06T12:57:04.334Z,1.31
2023-02-06T12:58:04.396Z,1.31
2023-02-06T12:59:04.300Z,1.31
2023-02-06T13:00:04.408Z,1.31
2023-02-06T13:01:05.585Z,1.38
2023-02-06T13:02:04.274Z,1.38
2023-02-06T13:03:04.446Z,1.31
2023-02-06T13:04:04.526Z,1.38
2023-02-06T13:05:04.410Z,1.38
2023-02-06T13:06:04.258Z,1.31
2023-02-06T13:07:04.310Z,1.38
2023-02-06T13:08:04.402Z,1.38
2023-02-06T13:09:03.513Z,1.38
2023-02-06T13:10:03.530Z,1.38
2023-02-06T13:11:03.531Z,1.38
2023-02-06T13:12:03.583Z,1.31
2023-02-06T13:13:03.610Z,1.31